This is the latest recevied weather packets stored in our database for station/object W4MJZ-1. If no packets are shown the sender has not sent any weather packets the latest 10 day(s).
| Time | Temp. | Humidity | Pressure | Rain* | Wind** | Luminosity | Snow |
|---|---|---|---|---|---|---|---|
| 1777607631 | 17.78° C | 66% | 1019.2 hPa | 0 mm | - | - | - |
| 1777607539 | 15.56° C | 67% | 1019.2 hPa | 0 mm | - | - | - |
| 1777607239 | 17.78° C | 66% | 1019.2 hPa | 0 mm | - | - | - |
| 1777607234 | 17.78° C | 66% | 1018.8 hPa | 0 mm | - | - | - |
| 1777606940 | 17.78° C | 66% | 1018.8 hPa | 0 mm | - | - | - |
| 1777606926 | 18.33° C | 64% | 1018.5 hPa | 0 mm | - | - | - |
| 1777606640 | 18.33° C | 64% | 1018.5 hPa | 0 mm | - | - | - |
| 1777606583 | 18.33° C | 64% | 1017.7 hPa | 0 mm | - | - | - |
| 1777606339 | 18.33° C | 64% | 1017.7 hPa | 0 mm | - | - | - |
| 1777606066 | 19.44° C | 46% | 1017.3 hPa | 0 mm | - | - | - |
| 1777606039 | 18.89° C | 57% | 1017.3 hPa | 0 mm | - | - | - |
| 1777605757 | 18.33° C | 57% | 1017.3 hPa | 0 mm | - | - | - |
| 1777605739 | 19.44° C | 46% | 1017.3 hPa | 0 mm | - | - | - |
| 1777605443 | 18.33° C | 56% | 1017.3 hPa | 0 mm | - | - | - |
| 1777605439 | 18.33° C | 57% | 1017.3 hPa | 0 mm | - | - | - |
| 1777605209 | 18.33° C | 52% | 1016.6 hPa | 0 mm | - | - | - |
| 1777605139 | 18.33° C | 56% | 1017.3 hPa | 0 mm | - | - | - |
| 1777604839 | 18.33° C | 52% | 1016.6 hPa | 0 mm | - | - | - |
| 1777604779 | 18.33° C | 54% | 1017 hPa | 0 mm | - | - | - |
| 1777604560 | 17.78° C | 58% | 1016.6 hPa | 0 mm | - | - | - |
| 1777604539 | 18.33° C | 54% | 1017 hPa | 0 mm | - | - | - |
| 1777604266 | 17.78° C | 59% | 1016.6 hPa | 0 mm | - | - | - |
| 1777604239 | 17.78° C | 58% | 1016.6 hPa | 0 mm | - | - | - |
| 1777604039 | 17.78° C | 54% | 1016.2 hPa | 0 mm | - | - | - |
| 1777603939 | 17.78° C | 59% | 1016.6 hPa | 0 mm | - | - | - |
* Rain latest hour (hover to see other rain measurements)
** Current wind speed in m/s (hover to see current wind gust speed)